sensor_id;sensor_type;location;lat;lon;timestamp;P1;durP1;ratioP1;P2;durP2;ratioP2
3083;SDS011;1552;51.952;7.618;2023-10-13T00:00:46;24.92;;;16.00;;
3083;SDS011;1552;51.952;7.618;2023-10-13T00:03:13;25.98;;;15.82;;
3083;SDS011;1552;51.952;7.618;2023-10-13T00:05:41;34.00;;;17.17;;
3083;SDS011;1552;51.952;7.618;2023-10-13T00:08:08;23.70;;;15.10;;
3083;SDS011;1552;51.952;7.618;2023-10-13T00:10:36;28.20;;;15.30;;
3083;SDS011;1552;51.952;7.618;2023-10-13T00:13:02;25.42;;;16.10;;
3083;SDS011;1552;51.952;7.618;2023-10-13T00:15:38;31.23;;;16.27;;
3083;SDS011;1552;51.952;7.618;2023-10-13T00:18:17;19.45;;;14.85;;
3083;SDS011;1552;51.952;7.618;2023-10-13T00:20:44;27.63;;;14.80;;
3083;SDS011;1552;51.952;7.618;2023-10-13T00:23:14;25.50;;;15.77;;
3083;SDS011;1552;51.952;7.618;2023-10-13T00:25:47;29.08;;;15.00;;
3083;SDS011;1552;51.952;7.618;2023-10-13T00:28:21;21.40;;;13.95;;
3083;SDS011;1552;51.952;7.618;2023-10-13T00:30:49;23.35;;;15.32;;
3083;SDS011;1552;51.952;7.618;2023-10-13T00:33:17;25.60;;;14.15;;
3083;SDS011;1552;51.952;7.618;2023-10-13T00:35:45;22.33;;;12.98;;
3083;SDS011;1552;51.952;7.618;2023-10-13T00:38:12;25.75;;;13.68;;
3083;SDS011;1552;51.952;7.618;2023-10-13T00:40:39;26.58;;;13.88;;
3083;SDS011;1552;51.952;7.618;2023-10-13T00:43:09;20.38;;;11.40;;
3083;SDS011;1552;51.952;7.618;2023-10-13T00:45:54;20.08;;;13.25;;
3083;SDS011;1552;51.952;7.618;2023-10-13T00:48:32;17.08;;;10.90;;
3083;SDS011;1552;51.952;7.618;2023-10-13T00:50:59;24.65;;;13.20;;
3083;SDS011;1552;51.952;7.618;2023-10-13T00:53:28;19.73;;;13.20;;
3083;SDS011;1552;51.952;7.618;2023-10-13T00:55:54;21.02;;;13.52;;
3083;SDS011;1552;51.952;7.618;2023-10-13T00:58:22;24.98;;;12.35;;
3083;SDS011;1552;51.952;7.618;2023-10-13T01:00:50;22.85;;;13.00;;
3083;SDS011;1552;51.952;7.618;2023-10-13T01:03:22;20.30;;;12.85;;
3083;SDS011;1552;51.952;7.618;2023-10-13T01:05:52;18.27;;;12.15;;
3083;SDS011;1552;51.952;7.618;2023-10-13T01:08:19;16.85;;;10.98;;
3083;SDS011;1552;51.952;7.618;2023-10-13T01:10:48;23.15;;;12.52;;
3083;SDS011;1552;51.952;7.618;2023-10-13T01:13:14;21.38;;;11.55;;
3083;SDS011;1552;51.952;7.618;2023-10-13T01:15:43;20.40;;;12.13;;
3083;SDS011;1552;51.952;7.618;2023-10-13T01:18:11;21.40;;;10.68;;
3083;SDS011;1552;51.952;7.618;2023-10-13T01:20:38;14.70;;;10.63;;
3083;SDS011;1552;51.952;7.618;2023-10-13T01:23:11;17.40;;;11.07;;
3083;SDS011;1552;51.952;7.618;2023-10-13T01:25:43;17.00;;;11.20;;
3083;SDS011;1552;51.952;7.618;2023-10-13T01:28:10;19.88;;;11.10;;
3083;SDS011;1552;51.952;7.618;2023-10-13T01:30:36;15.52;;;10.27;;
3083;SDS011;1552;51.952;7.618;2023-10-13T01:33:04;15.48;;;10.00;;
3083;SDS011;1552;51.952;7.618;2023-10-13T01:35:29;18.17;;;9.35;;
3083;SDS011;1552;51.952;7.618;2023-10-13T01:38:01;15.88;;;10.57;;
3083;SDS011;1552;51.952;7.618;2023-10-13T01:40:28;23.42;;;12.02;;
3083;SDS011;1552;51.952;7.618;2023-10-13T01:42:58;15.75;;;11.10;;
3083;SDS011;1552;51.952;7.618;2023-10-13T01:45:23;23.30;;;10.45;;
3083;SDS011;1552;51.952;7.618;2023-10-13T01:47:53;17.13;;;10.68;;
3083;SDS011;1552;51.952;7.618;2023-10-13T01:50:19;18.80;;;11.57;;
3083;SDS011;1552;51.952;7.618;2023-10-13T01:52:46;20.00;;;10.88;;
3083;SDS011;1552;51.952;7.618;2023-10-13T01:55:11;16.40;;;9.50;;
3083;SDS011;1552;51.952;7.618;2023-10-13T01:57:41;20.80;;;11.20;;
3083;SDS011;1552;51.952;7.618;2023-10-13T02:00:07;15.48;;;9.70;;
3083;SDS011;1552;51.952;7.618;2023-10-13T02:02:43;16.67;;;10.10;;
3083;SDS011;1552;51.952;7.618;2023-10-13T02:05:10;17.48;;;11.63;;
3083;SDS011;1552;51.952;7.618;2023-10-13T02:07:37;20.08;;;8.85;;
3083;SDS011;1552;51.952;7.618;2023-10-13T02:10:03;14.40;;;9.25;;
3083;SDS011;1552;51.952;7.618;2023-10-13T02:12:31;17.67;;;10.60;;
3083;SDS011;1552;51.952;7.618;2023-10-13T02:15:03;15.70;;;9.38;;
3083;SDS011;1552;51.952;7.618;2023-10-13T02:17:29;18.25;;;9.60;;
3083;SDS011;1552;51.952;7.618;2023-10-13T02:20:05;14.52;;;9.80;;
3083;SDS011;1552;51.952;7.618;2023-10-13T02:22:33;14.52;;;10.20;;
3083;SDS011;1552;51.952;7.618;2023-10-13T02:24:58;16.88;;;10.57;;
3083;SDS011;1552;51.952;7.618;2023-10-13T02:27:26;16.17;;;10.68;;
3083;SDS011;1552;51.952;7.618;2023-10-13T02:29:52;15.05;;;10.02;;
3083;SDS011;1552;51.952;7.618;2023-10-13T02:32:25;16.00;;;10.90;;
3083;SDS011;1552;51.952;7.618;2023-10-13T02:34:51;16.73;;;9.60;;
3083;SDS011;1552;51.952;7.618;2023-10-13T02:37:22;25.38;;;10.13;;
3083;SDS011;1552;51.952;7.618;2023-10-13T02:39:48;17.73;;;10.30;;
3083;SDS011;1552;51.952;7.618;2023-10-13T02:42:14;13.40;;;9.32;;
3083;SDS011;1552;51.952;7.618;2023-10-13T02:44:48;16.10;;;9.50;;
3083;SDS011;1552;51.952;7.618;2023-10-13T02:47:14;15.80;;;10.05;;
3083;SDS011;1552;51.952;7.618;2023-10-13T02:49:41;14.23;;;9.57;;
3083;SDS011;1552;51.952;7.618;2023-10-13T02:52:11;14.35;;;9.05;;
3083;SDS011;1552;51.952;7.618;2023-10-13T02:54:37;17.00;;;9.85;;
3083;SDS011;1552;51.952;7.618;2023-10-13T02:57:05;13.88;;;9.32;;
3083;SDS011;1552;51.952;7.618;2023-10-13T02:59:31;18.00;;;9.57;;
3083;SDS011;1552;51.952;7.618;2023-10-13T03:02:04;14.23;;;9.50;;
3083;SDS011;1552;51.952;7.618;2023-10-13T03:04:43;17.55;;;10.85;;
3083;SDS011;1552;51.952;7.618;2023-10-13T03:07:09;16.65;;;9.77;;
3083;SDS011;1552;51.952;7.618;2023-10-13T03:09:35;17.60;;;10.27;;
3083;SDS011;1552;51.952;7.618;2023-10-13T03:12:02;17.05;;;9.63;;
3083;SDS011;1552;51.952;7.618;2023-10-13T03:14:30;17.60;;;10.48;;
3083;SDS011;1552;51.952;7.618;2023-10-13T03:16:58;18.60;;;10.02;;
3083;SDS011;1552;51.952;7.618;2023-10-13T03:19:27;16.15;;;10.60;;
3083;SDS011;1552;51.952;7.618;2023-10-13T03:21:59;14.10;;;10.40;;
3083;SDS011;1552;51.952;7.618;2023-10-13T03:24:32;15.32;;;11.00;;
3083;SDS011;1552;51.952;7.618;2023-10-13T03:26:59;15.38;;;9.40;;
3083;SDS011;1552;51.952;7.618;2023-10-13T03:29:33;14.93;;;9.63;;
3083;SDS011;1552;51.952;7.618;2023-10-13T03:32:00;16.73;;;8.65;;
3083;SDS011;1552;51.952;7.618;2023-10-13T03:34:36;13.55;;;9.05;;
3083;SDS011;1552;51.952;7.618;2023-10-13T03:37:07;19.40;;;8.63;;
3083;SDS011;1552;51.952;7.618;2023-10-13T03:39:42;17.50;;;9.68;;
3083;SDS011;1552;51.952;7.618;2023-10-13T03:42:10;13.00;;;7.82;;
3083;SDS011;1552;51.952;7.618;2023-10-13T03:44:43;23.88;;;9.63;;
3083;SDS011;1552;51.952;7.618;2023-10-13T03:47:11;14.13;;;9.13;;
3083;SDS011;1552;51.952;7.618;2023-10-13T03:49:44;14.18;;;8.68;;
3083;SDS011;1552;51.952;7.618;2023-10-13T03:52:11;15.82;;;9.75;;
3083;SDS011;1552;51.952;7.618;2023-10-13T03:54:38;10.13;;;7.75;;
3083;SDS011;1552;51.952;7.618;2023-10-13T03:57:06;12.93;;;8.57;;
3083;SDS011;1552;51.952;7.618;2023-10-13T03:59:36;13.95;;;8.43;;
3083;SDS011;1552;51.952;7.618;2023-10-13T04:02:03;13.35;;;7.28;;
3083;SDS011;1552;51.952;7.618;2023-10-13T04:04:37;13.73;;;8.82;;
3083;SDS011;1552;51.952;7.618;2023-10-13T04:07:14;16.10;;;9.07;;
3083;SDS011;1552;51.952;7.618;2023-10-13T04:09:54;11.43;;;7.60;;
3083;SDS011;1552;51.952;7.618;2023-10-13T04:12:34;10.57;;;7.45;;
3083;SDS011;1552;51.952;7.618;2023-10-13T04:15:18;12.88;;;7.72;;
3083;SDS011;1552;51.952;7.618;2023-10-13T04:17:48;12.68;;;7.60;;
3083;SDS011;1552;51.952;7.618;2023-10-13T04:20:16;16.67;;;7.63;;
3083;SDS011;1552;51.952;7.618;2023-10-13T04:22:59;10.65;;;7.13;;
3083;SDS011;1552;51.952;7.618;2023-10-13T04:25:48;13.10;;;7.85;;
3083;SDS011;1552;51.952;7.618;2023-10-13T04:28:32;8.55;;;7.07;;
3083;SDS011;1552;51.952;7.618;2023-10-13T04:31:16;13.40;;;7.30;;
3083;SDS011;1552;51.952;7.618;2023-10-13T04:33:50;14.43;;;7.82;;
3083;SDS011;1552;51.952;7.618;2023-10-13T04:36:19;12.82;;;8.20;;
3083;SDS011;1552;51.952;7.618;2023-10-13T04:39:03;12.63;;;8.02;;
3083;SDS011;1552;51.952;7.618;2023-10-13T04:41:34;16.38;;;8.07;;
3083;SDS011;1552;51.952;7.618;2023-10-13T04:44:04;13.98;;;7.45;;
3083;SDS011;1552;51.952;7.618;2023-10-13T04:46:30;11.02;;;7.25;;
3083;SDS011;1552;51.952;7.618;2023-10-13T04:49:19;15.50;;;7.60;;
3083;SDS011;1552;51.952;7.618;2023-10-13T04:51:53;11.15;;;6.90;;
3083;SDS011;1552;51.952;7.618;2023-10-13T04:54:26;13.23;;;7.95;;
3083;SDS011;1552;51.952;7.618;2023-10-13T04:56:57;13.05;;;8.40;;
3083;SDS011;1552;51.952;7.618;2023-10-13T04:59:56;9.85;;;6.88;;
3083;SDS011;1552;51.952;7.618;2023-10-13T05:02:51;12.77;;;6.85;;
3083;SDS011;1552;51.952;7.618;2023-10-13T05:05:35;16.42;;;7.22;;
3083;SDS011;1552;51.952;7.618;2023-10-13T05:08:18;10.27;;;6.72;;
3083;SDS011;1552;51.952;7.618;2023-10-13T05:11:04;12.77;;;6.95;;
3083;SDS011;1552;51.952;7.618;2023-10-13T05:13:48;11.98;;;6.30;;
3083;SDS011;1552;51.952;7.618;2023-10-13T05:16:32;10.55;;;6.43;;
3083;SDS011;1552;51.952;7.618;2023-10-13T05:19:16;9.30;;;6.05;;
3083;SDS011;1552;51.952;7.618;2023-10-13T05:22:00;16.67;;;7.47;;
3083;SDS011;1552;51.952;7.618;2023-10-13T05:24:44;9.52;;;6.70;;
3083;SDS011;1552;51.952;7.618;2023-10-13T05:27:29;13.70;;;7.82;;
3083;SDS011;1552;51.952;7.618;2023-10-13T05:30:12;11.27;;;7.00;;
3083;SDS011;1552;51.952;7.618;2023-10-13T05:32:57;14.52;;;7.50;;
3083;SDS011;1552;51.952;7.618;2023-10-13T05:35:40;11.20;;;6.80;;
3083;SDS011;1552;51.952;7.618;2023-10-13T05:38:24;9.70;;;6.85;;
3083;SDS011;1552;51.952;7.618;2023-10-13T05:41:08;12.65;;;6.95;;
3083;SDS011;1552;51.952;7.618;2023-10-13T05:43:53;15.25;;;8.65;;
3083;SDS011;1552;51.952;7.618;2023-10-13T05:46:36;12.23;;;9.48;;
3083;SDS011;1552;51.952;7.618;2023-10-13T05:49:26;16.63;;;10.93;;
3083;SDS011;1552;51.952;7.618;2023-10-13T05:52:15;17.73;;;11.98;;
3083;SDS011;1552;51.952;7.618;2023-10-13T05:54:59;15.57;;;10.73;;
3083;SDS011;1552;51.952;7.618;2023-10-13T05:57:43;16.23;;;9.60;;
3083;SDS011;1552;51.952;7.618;2023-10-13T06:00:28;14.02;;;9.48;;
3083;SDS011;1552;51.952;7.618;2023-10-13T06:03:12;16.90;;;8.70;;
3083;SDS011;1552;51.952;7.618;2023-10-13T06:05:56;16.83;;;8.07;;
3083;SDS011;1552;51.952;7.618;2023-10-13T06:08:40;14.85;;;9.25;;
3083;SDS011;1552;51.952;7.618;2023-10-13T06:11:23;10.48;;;7.68;;
3083;SDS011;1552;51.952;7.618;2023-10-13T06:14:07;15.32;;;8.20;;
3083;SDS011;1552;51.952;7.618;2023-10-13T06:16:52;11.35;;;7.28;;
3083;SDS011;1552;51.952;7.618;2023-10-13T06:19:35;11.98;;;7.40;;
3083;SDS011;1552;51.952;7.618;2023-10-13T06:22:19;12.45;;;8.15;;
3083;SDS011;1552;51.952;7.618;2023-10-13T06:25:03;12.05;;;7.03;;
3083;SDS011;1552;51.952;7.618;2023-10-13T06:27:47;10.18;;;6.95;;
3083;SDS011;1552;51.952;7.618;2023-10-13T06:30:30;12.63;;;8.25;;
3083;SDS011;1552;51.952;7.618;2023-10-13T06:32:59;20.48;;;8.88;;
3083;SDS011;1552;51.952;7.618;2023-10-13T06:35:26;8.80;;;6.07;;
3083;SDS011;1552;51.952;7.618;2023-10-13T06:37:54;12.93;;;8.07;;
3083;SDS011;1552;51.952;7.618;2023-10-13T06:40:25;13.48;;;7.95;;
3083;SDS011;1552;51.952;7.618;2023-10-13T06:42:59;9.35;;;5.85;;
3083;SDS011;1552;51.952;7.618;2023-10-13T06:45:38;8.70;;;5.43;;
3083;SDS011;1552;51.952;7.618;2023-10-13T06:48:06;8.63;;;5.10;;
3083;SDS011;1552;51.952;7.618;2023-10-13T06:50:36;8.65;;;5.40;;
3083;SDS011;1552;51.952;7.618;2023-10-13T06:53:06;7.95;;;5.47;;
3083;SDS011;1552;51.952;7.618;2023-10-13T06:55:36;8.27;;;5.10;;
3083;SDS011;1552;51.952;7.618;2023-10-13T06:58:05;9.40;;;5.63;;
3083;SDS011;1552;51.952;7.618;2023-10-13T07:00:31;12.45;;;5.97;;
3083;SDS011;1552;51.952;7.618;2023-10-13T07:02:59;10.45;;;4.97;;
3083;SDS011;1552;51.952;7.618;2023-10-13T07:05:35;8.13;;;5.25;;
3083;SDS011;1552;51.952;7.618;2023-10-13T07:08:03;9.60;;;5.38;;
3083;SDS011;1552;51.952;7.618;2023-10-13T07:10:30;7.03;;;5.07;;
3083;SDS011;1552;51.952;7.618;2023-10-13T07:13:01;10.15;;;6.20;;
3083;SDS011;1552;51.952;7.618;2023-10-13T07:15:32;5.32;;;4.57;;
3083;SDS011;1552;51.952;7.618;2023-10-13T07:18:08;9.80;;;4.95;;
3083;SDS011;1552;51.952;7.618;2023-10-13T07:20:39;10.68;;;4.90;;
3083;SDS011;1552;51.952;7.618;2023-10-13T07:23:09;7.55;;;4.55;;
3083;SDS011;1552;51.952;7.618;2023-10-13T07:25:37;5.60;;;4.43;;
3083;SDS011;1552;51.952;7.618;2023-10-13T07:28:06;8.70;;;3.88;;
3083;SDS011;1552;51.952;7.618;2023-10-13T07:30:33;6.90;;;4.28;;
3083;SDS011;1552;51.952;7.618;2023-10-13T07:33:13;6.18;;;4.47;;
3083;SDS011;1552;51.952;7.618;2023-10-13T07:35:40;5.35;;;3.97;;
3083;SDS011;1552;51.952;7.618;2023-10-13T07:38:07;9.10;;;4.55;;
3083;SDS011;1552;51.952;7.618;2023-10-13T07:40:34;9.10;;;4.32;;
3083;SDS011;1552;51.952;7.618;2023-10-13T07:43:05;9.90;;;4.53;;
3083;SDS011;1552;51.952;7.618;2023-10-13T07:45:36;10.65;;;5.13;;
3083;SDS011;1552;51.952;7.618;2023-10-13T07:48:02;8.23;;;4.50;;
3083;SDS011;1552;51.952;7.618;2023-10-13T07:50:32;8.75;;;3.95;;
3083;SDS011;1552;51.952;7.618;2023-10-13T07:53:00;11.75;;;3.97;;
3083;SDS011;1552;51.952;7.618;2023-10-13T07:55:30;6.45;;;3.85;;
3083;SDS011;1552;51.952;7.618;2023-10-13T07:57:58;5.88;;;3.75;;
3083;SDS011;1552;51.952;7.618;2023-10-13T08:00:25;7.70;;;4.18;;
3083;SDS011;1552;51.952;7.618;2023-10-13T08:02:57;8.65;;;4.03;;
3083;SDS011;1552;51.952;7.618;2023-10-13T08:05:34;8.30;;;3.83;;
3083;SDS011;1552;51.952;7.618;2023-10-13T08:08:09;10.48;;;3.58;;
3083;SDS011;1552;51.952;7.618;2023-10-13T08:10:39;6.65;;;3.70;;
3083;SDS011;1552;51.952;7.618;2023-10-13T08:13:07;7.88;;;3.67;;
3083;SDS011;1552;51.952;7.618;2023-10-13T08:15:39;8.68;;;3.67;;
3083;SDS011;1552;51.952;7.618;2023-10-13T08:18:12;15.25;;;4.15;;
3083;SDS011;1552;51.952;7.618;2023-10-13T08:20:42;8.82;;;3.67;;
3083;SDS011;1552;51.952;7.618;2023-10-13T08:23:10;8.32;;;3.70;;
3083;SDS011;1552;51.952;7.618;2023-10-13T08:25:39;6.30;;;2.90;;
3083;SDS011;1552;51.952;7.618;2023-10-13T08:28:19;8.23;;;3.70;;
3083;SDS011;1552;51.952;7.618;2023-10-13T08:31:03;7.85;;;3.97;;
3083;SDS011;1552;51.952;7.618;2023-10-13T08:33:39;7.35;;;3.25;;
3083;SDS011;1552;51.952;7.618;2023-10-13T08:36:11;9.38;;;4.47;;
3083;SDS011;1552;51.952;7.618;2023-10-13T08:38:59;8.88;;;3.58;;
3083;SDS011;1552;51.952;7.618;2023-10-13T08:41:45;12.30;;;3.58;;
3083;SDS011;1552;51.952;7.618;2023-10-13T08:44:23;11.48;;;3.55;;
3083;SDS011;1552;51.952;7.618;2023-10-13T08:46:58;6.68;;;3.67;;
3083;SDS011;1552;51.952;7.618;2023-10-13T08:49:31;6.30;;;3.50;;
3083;SDS011;1552;51.952;7.618;2023-10-13T08:52:04;7.10;;;3.47;;
3083;SDS011;1552;51.952;7.618;2023-10-13T08:54:35;8.43;;;3.35;;
3083;SDS011;1552;51.952;7.618;2023-10-13T08:57:04;14.00;;;3.95;;
3083;SDS011;1552;51.952;7.618;2023-10-13T08:59:45;13.05;;;4.43;;
3083;SDS011;1552;51.952;7.618;2023-10-13T09:02:18;18.95;;;4.18;;
3083;SDS011;1552;51.952;7.618;2023-10-13T09:04:47;7.03;;;3.90;;
3083;SDS011;1552;51.952;7.618;2023-10-13T09:07:24;9.75;;;3.75;;
3083;SDS011;1552;51.952;7.618;2023-10-13T09:09:52;13.20;;;4.18;;
3083;SDS011;1552;51.952;7.618;2023-10-13T09:12:25;7.95;;;3.47;;
3083;SDS011;1552;51.952;7.618;2023-10-13T09:15:01;11.15;;;3.42;;
3083;SDS011;1552;51.952;7.618;2023-10-13T09:17:30;6.78;;;4.28;;
3083;SDS011;1552;51.952;7.618;2023-10-13T09:20:01;9.77;;;4.35;;
3083;SDS011;1552;51.952;7.618;2023-10-13T09:22:49;28.27;;;4.00;;
3083;SDS011;1552;51.952;7.618;2023-10-13T09:25:22;7.32;;;3.50;;
3083;SDS011;1552;51.952;7.618;2023-10-13T09:27:48;7.03;;;3.40;;
3083;SDS011;1552;51.952;7.618;2023-10-13T09:30:16;8.95;;;4.25;;
3083;SDS011;1552;51.952;7.618;2023-10-13T09:32:43;8.02;;;4.07;;
3083;SDS011;1552;51.952;7.618;2023-10-13T09:35:16;5.68;;;3.45;;
3083;SDS011;1552;51.952;7.618;2023-10-13T09:37:42;9.18;;;4.65;;
3083;SDS011;1552;51.952;7.618;2023-10-13T09:40:11;9.57;;;4.15;;
3083;SDS011;1552;51.952;7.618;2023-10-13T09:42:51;6.95;;;3.92;;
3083;SDS011;1552;51.952;7.618;2023-10-13T09:45:20;7.35;;;3.83;;
3083;SDS011;1552;51.952;7.618;2023-10-13T09:47:52;7.25;;;3.55;;
3083;SDS011;1552;51.952;7.618;2023-10-13T09:50:19;8.75;;;4.03;;
3083;SDS011;1552;51.952;7.618;2023-10-13T09:52:49;10.40;;;3.47;;
3083;SDS011;1552;51.952;7.618;2023-10-13T09:55:19;8.15;;;4.38;;
3083;SDS011;1552;51.952;7.618;2023-10-13T09:57:47;13.32;;;4.10;;
3083;SDS011;1552;51.952;7.618;2023-10-13T10:00:23;10.63;;;3.53;;
3083;SDS011;1552;51.952;7.618;2023-10-13T10:03:11;14.95;;;3.80;;
3083;SDS011;1552;51.952;7.618;2023-10-13T10:06:01;8.77;;;3.95;;
3083;SDS011;1552;51.952;7.618;2023-10-13T10:08:31;11.32;;;3.67;;
3083;SDS011;1552;51.952;7.618;2023-10-13T10:11:07;9.18;;;2.85;;
3083;SDS011;1552;51.952;7.618;2023-10-13T10:13:35;7.35;;;3.47;;
3083;SDS011;1552;51.952;7.618;2023-10-13T10:16:02;8.93;;;3.17;;
3083;SDS011;1552;51.952;7.618;2023-10-13T10:18:34;6.68;;;3.28;;
3083;SDS011;1552;51.952;7.618;2023-10-13T10:21:03;9.73;;;4.00;;
3083;SDS011;1552;51.952;7.618;2023-10-13T10:23:32;10.25;;;4.25;;
3083;SDS011;1552;51.952;7.618;2023-10-13T10:26:09;7.32;;;3.53;;
3083;SDS011;1552;51.952;7.618;2023-10-13T10:28:39;10.13;;;3.47;;
3083;SDS011;1552;51.952;7.618;2023-10-13T10:31:08;9.95;;;3.25;;
3083;SDS011;1552;51.952;7.618;2023-10-13T10:33:37;9.63;;;3.45;;
3083;SDS011;1552;51.952;7.618;2023-10-13T10:36:04;6.63;;;3.67;;
3083;SDS011;1552;51.952;7.618;2023-10-13T10:38:31;8.30;;;3.60;;
3083;SDS011;1552;51.952;7.618;2023-10-13T10:41:00;10.98;;;3.90;;
3083;SDS011;1552;51.952;7.618;2023-10-13T10:43:28;9.07;;;3.10;;
3083;SDS011;1552;51.952;7.618;2023-10-13T10:46:08;13.30;;;4.05;;
3083;SDS011;1552;51.952;7.618;2023-10-13T10:48:36;9.20;;;3.38;;
3083;SDS011;1552;51.952;7.618;2023-10-13T10:51:03;8.52;;;3.60;;
3083;SDS011;1552;51.952;7.618;2023-10-13T10:53:39;11.27;;;3.85;;
3083;SDS011;1552;51.952;7.618;2023-10-13T10:56:09;9.15;;;4.28;;
3083;SDS011;1552;51.952;7.618;2023-10-13T10:58:45;7.40;;;3.05;;
3083;SDS011;1552;51.952;7.618;2023-10-13T11:01:13;11.48;;;3.72;;
3083;SDS011;1552;51.952;7.618;2023-10-13T11:03:52;8.43;;;4.03;;
3083;SDS011;1552;51.952;7.618;2023-10-13T11:06:20;14.68;;;3.88;;
3083;SDS011;1552;51.952;7.618;2023-10-13T11:08:49;6.95;;;3.55;;
3083;SDS011;1552;51.952;7.618;2023-10-13T11:11:28;12.57;;;3.85;;
3083;SDS011;1552;51.952;7.618;2023-10-13T11:13:55;10.20;;;4.85;;
3083;SDS011;1552;51.952;7.618;2023-10-13T11:16:28;24.00;;;3.90;;
3083;SDS011;1552;51.952;7.618;2023-10-13T11:18:59;10.18;;;4.38;;
3083;SDS011;1552;51.952;7.618;2023-10-13T11:21:28;8.55;;;3.15;;
3083;SDS011;1552;51.952;7.618;2023-10-13T11:23:55;8.98;;;4.22;;
3083;SDS011;1552;51.952;7.618;2023-10-13T11:26:32;7.10;;;4.15;;
3083;SDS011;1552;51.952;7.618;2023-10-13T11:29:01;6.75;;;3.17;;
3083;SDS011;1552;51.952;7.618;2023-10-13T11:31:36;15.40;;;3.97;;
3083;SDS011;1552;51.952;7.618;2023-10-13T11:34:03;9.50;;;3.42;;
3083;SDS011;1552;51.952;7.618;2023-10-13T11:36:31;7.38;;;3.47;;
3083;SDS011;1552;51.952;7.618;2023-10-13T11:38:58;7.90;;;3.58;;
3083;SDS011;1552;51.952;7.618;2023-10-13T11:41:24;11.05;;;3.95;;
3083;SDS011;1552;51.952;7.618;2023-10-13T11:43:58;11.50;;;4.28;;
3083;SDS011;1552;51.952;7.618;2023-10-13T11:46:50;13.38;;;4.07;;
3083;SDS011;1552;51.952;7.618;2023-10-13T11:49:21;19.17;;;4.30;;
3083;SDS011;1552;51.952;7.618;2023-10-13T11:51:59;7.85;;;3.70;;
3083;SDS011;1552;51.952;7.618;2023-10-13T11:54:41;10.52;;;3.75;;
3083;SDS011;1552;51.952;7.618;2023-10-13T11:57:08;7.00;;;3.05;;
3083;SDS011;1552;51.952;7.618;2023-10-13T11:59:34;15.10;;;4.07;;
3083;SDS011;1552;51.952;7.618;2023-10-13T12:02:07;11.95;;;3.97;;
3083;SDS011;1552;51.952;7.618;2023-10-13T12:04:51;10.32;;;3.90;;
3083;SDS011;1552;51.952;7.618;2023-10-13T12:07:19;12.73;;;3.70;;
3083;SDS011;1552;51.952;7.618;2023-10-13T12:09:47;11.75;;;4.50;;
3083;SDS011;1552;51.952;7.618;2023-10-13T12:12:31;12.63;;;4.43;;
3083;SDS011;1552;51.952;7.618;2023-10-13T12:15:05;9.77;;;4.03;;
3083;SDS011;1552;51.952;7.618;2023-10-13T12:17:40;10.02;;;4.00;;
3083;SDS011;1552;51.952;7.618;2023-10-13T12:20:10;13.95;;;3.63;;
3083;SDS011;1552;51.952;7.618;2023-10-13T12:22:43;10.07;;;4.50;;
3083;SDS011;1552;51.952;7.618;2023-10-13T12:25:16;11.95;;;5.13;;
3083;SDS011;1552;51.952;7.618;2023-10-13T12:27:50;16.15;;;5.03;;
3083;SDS011;1552;51.952;7.618;2023-10-13T12:30:21;9.05;;;3.67;;
3083;SDS011;1552;51.952;7.618;2023-10-13T12:33:02;11.68;;;4.22;;
3083;SDS011;1552;51.952;7.618;2023-10-13T12:35:34;9.38;;;3.97;;
3083;SDS011;1552;51.952;7.618;2023-10-13T12:38:09;11.52;;;4.20;;
3083;SDS011;1552;51.952;7.618;2023-10-13T12:40:51;12.50;;;5.00;;
3083;SDS011;1552;51.952;7.618;2023-10-13T12:43:35;15.35;;;4.43;;
3083;SDS011;1552;51.952;7.618;2023-10-13T12:46:33;10.05;;;4.07;;
3083;SDS011;1552;51.952;7.618;2023-10-13T12:49:19;6.82;;;4.40;;
3083;SDS011;1552;51.952;7.618;2023-10-13T12:52:04;7.40;;;3.60;;
3083;SDS011;1552;51.952;7.618;2023-10-13T12:54:30;9.80;;;4.57;;
3083;SDS011;1552;51.952;7.618;2023-10-13T12:57:01;7.25;;;3.78;;
3083;SDS011;1552;51.952;7.618;2023-10-13T12:59:27;9.40;;;4.22;;
3083;SDS011;1552;51.952;7.618;2023-10-13T13:01:54;10.75;;;3.90;;
3083;SDS011;1552;51.952;7.618;2023-10-13T13:04:21;13.13;;;4.43;;
3083;SDS011;1552;51.952;7.618;2023-10-13T13:06:50;10.80;;;4.20;;
3083;SDS011;1552;51.952;7.618;2023-10-13T13:09:18;12.45;;;5.05;;
3083;SDS011;1552;51.952;7.618;2023-10-13T13:11:50;13.15;;;4.25;;
3083;SDS011;1552;51.952;7.618;2023-10-13T13:14:17;9.20;;;4.22;;
3083;SDS011;1552;51.952;7.618;2023-10-13T13:16:43;10.27;;;3.92;;
3083;SDS011;1552;51.952;7.618;2023-10-13T13:19:13;11.07;;;4.15;;
3083;SDS011;1552;51.952;7.618;2023-10-13T13:21:40;16.15;;;4.82;;
3083;SDS011;1552;51.952;7.618;2023-10-13T13:24:07;9.65;;;3.85;;
3083;SDS011;1552;51.952;7.618;2023-10-13T13:26:35;11.93;;;3.47;;
3083;SDS011;1552;51.952;7.618;2023-10-13T13:29:02;9.25;;;4.65;;
3083;SDS011;1552;51.952;7.618;2023-10-13T13:31:30;8.75;;;4.22;;
3083;SDS011;1552;51.952;7.618;2023-10-13T13:33:56;10.98;;;3.92;;
3083;SDS011;1552;51.952;7.618;2023-10-13T13:36:22;16.10;;;3.88;;
3083;SDS011;1552;51.952;7.618;2023-10-13T13:38:50;9.55;;;4.15;;
3083;SDS011;1552;51.952;7.618;2023-10-13T13:41:20;12.73;;;4.10;;
3083;SDS011;1552;51.952;7.618;2023-10-13T13:43:47;9.45;;;4.28;;
3083;SDS011;1552;51.952;7.618;2023-10-13T13:46:20;14.65;;;3.80;;
3083;SDS011;1552;51.952;7.618;2023-10-13T13:48:49;22.38;;;4.63;;
3083;SDS011;1552;51.952;7.618;2023-10-13T13:51:16;11.10;;;4.32;;
3083;SDS011;1552;51.952;7.618;2023-10-13T13:53:45;21.08;;;4.93;;
3083;SDS011;1552;51.952;7.618;2023-10-13T13:56:14;9.63;;;4.32;;
3083;SDS011;1552;51.952;7.618;2023-10-13T13:58:41;13.25;;;4.68;;
3083;SDS011;1552;51.952;7.618;2023-10-13T14:01:07;9.23;;;4.28;;
3083;SDS011;1552;51.952;7.618;2023-10-13T14:03:39;11.02;;;4.22;;
3083;SDS011;1552;51.952;7.618;2023-10-13T14:06:10;10.30;;;4.05;;
3083;SDS011;1552;51.952;7.618;2023-10-13T14:08:42;14.00;;;4.10;;
3083;SDS011;1552;51.952;7.618;2023-10-13T14:11:09;16.90;;;4.10;;
3083;SDS011;1552;51.952;7.618;2023-10-13T14:13:56;8.45;;;4.15;;
3083;SDS011;1552;51.952;7.618;2023-10-13T14:16:23;13.82;;;4.18;;
3083;SDS011;1552;51.952;7.618;2023-10-13T14:18:50;12.95;;;4.03;;
3083;SDS011;1552;51.952;7.618;2023-10-13T14:21:17;10.32;;;4.28;;
3083;SDS011;1552;51.952;7.618;2023-10-13T14:23:44;13.98;;;4.72;;
3083;SDS011;1552;51.952;7.618;2023-10-13T14:26:12;8.00;;;3.60;;
3083;SDS011;1552;51.952;7.618;2023-10-13T14:28:38;10.93;;;4.10;;
3083;SDS011;1552;51.952;7.618;2023-10-13T14:31:16;14.15;;;3.95;;
3083;SDS011;1552;51.952;7.618;2023-10-13T14:33:43;18.05;;;4.00;;
3083;SDS011;1552;51.952;7.618;2023-10-13T14:36:10;13.10;;;3.83;;
3083;SDS011;1552;51.952;7.618;2023-10-13T14:38:36;9.23;;;3.38;;
3083;SDS011;1552;51.952;7.618;2023-10-13T14:41:02;15.02;;;4.13;;
3083;SDS011;1552;51.952;7.618;2023-10-13T14:43:30;10.98;;;4.20;;
3083;SDS011;1552;51.952;7.618;2023-10-13T14:45:57;15.57;;;3.75;;
3083;SDS011;1552;51.952;7.618;2023-10-13T14:48:27;11.80;;;3.97;;
3083;SDS011;1552;51.952;7.618;2023-10-13T14:50:53;16.85;;;4.43;;
3083;SDS011;1552;51.952;7.618;2023-10-13T14:53:20;9.57;;;3.60;;
3083;SDS011;1552;51.952;7.618;2023-10-13T14:55:47;7.65;;;3.55;;
3083;SDS011;1552;51.952;7.618;2023-10-13T14:58:13;9.30;;;3.75;;
3083;SDS011;1552;51.952;7.618;2023-10-13T15:00:41;13.52;;;3.95;;
3083;SDS011;1552;51.952;7.618;2023-10-13T15:03:10;21.02;;;4.55;;
3083;SDS011;1552;51.952;7.618;2023-10-13T15:05:39;10.55;;;4.28;;
3083;SDS011;1552;51.952;7.618;2023-10-13T15:08:08;10.27;;;3.80;;
3083;SDS011;1552;51.952;7.618;2023-10-13T15:10:34;14.55;;;4.40;;
3083;SDS011;1552;51.952;7.618;2023-10-13T15:13:02;12.20;;;3.13;;
3083;SDS011;1552;51.952;7.618;2023-10-13T15:15:28;12.18;;;4.68;;
3083;SDS011;1552;51.952;7.618;2023-10-13T15:17:57;7.05;;;3.22;;
3083;SDS011;1552;51.952;7.618;2023-10-13T15:20:23;11.25;;;4.28;;
3083;SDS011;1552;51.952;7.618;2023-10-13T15:22:51;10.80;;;3.97;;
3083;SDS011;1552;51.952;7.618;2023-10-13T15:25:24;12.45;;;4.18;;
3083;SDS011;1552;51.952;7.618;2023-10-13T15:27:56;15.18;;;4.07;;
3083;SDS011;1552;51.952;7.618;2023-10-13T15:30:27;10.30;;;3.88;;
3083;SDS011;1552;51.952;7.618;2023-10-13T15:33:07;13.30;;;4.53;;